sensor_id;sensor_type;location;lat;lon;timestamp;P1;durP1;ratioP1;P2;durP2;ratioP2
58017;SDS011;43810;50.860;19.226;2023-08-17T00:00:02;9.57;;;6.88;;
58017;SDS011;43810;50.860;19.226;2023-08-17T00:02:29;9.70;;;6.90;;
58017;SDS011;43810;50.860;19.226;2023-08-17T00:04:55;7.88;;;7.07;;
58017;SDS011;43810;50.860;19.226;2023-08-17T00:07:20;8.95;;;6.97;;
58017;SDS011;43810;50.860;19.226;2023-08-17T00:09:46;10.80;;;7.47;;
58017;SDS011;43810;50.860;19.226;2023-08-17T00:12:13;9.45;;;7.50;;
58017;SDS011;43810;50.860;19.226;2023-08-17T00:14:39;9.07;;;7.38;;
58017;SDS011;43810;50.860;19.226;2023-08-17T00:17:04;9.75;;;7.22;;
58017;SDS011;43810;50.860;19.226;2023-08-17T00:19:30;11.43;;;7.25;;
58017;SDS011;43810;50.860;19.226;2023-08-17T00:21:57;10.35;;;6.65;;
58017;SDS011;43810;50.860;19.226;2023-08-17T00:24:23;12.23;;;7.90;;
58017;SDS011;43810;50.860;19.226;2023-08-17T00:26:49;8.40;;;7.03;;
58017;SDS011;43810;50.860;19.226;2023-08-17T00:29:15;9.13;;;7.78;;
58017;SDS011;43810;50.860;19.226;2023-08-17T00:31:41;9.65;;;6.82;;
58017;SDS011;43810;50.860;19.226;2023-08-17T00:34:07;9.95;;;7.15;;
58017;SDS011;43810;50.860;19.226;2023-08-17T00:36:32;11.68;;;7.32;;
58017;SDS011;43810;50.860;19.226;2023-08-17T00:38:58;9.52;;;6.95;;
58017;SDS011;43810;50.860;19.226;2023-08-17T00:41:24;13.27;;;7.95;;
58017;SDS011;43810;50.860;19.226;2023-08-17T00:43:50;9.23;;;7.60;;
58017;SDS011;43810;50.860;19.226;2023-08-17T00:46:15;10.40;;;7.38;;
58017;SDS011;43810;50.860;19.226;2023-08-17T00:48:42;10.38;;;7.72;;
58017;SDS011;43810;50.860;19.226;2023-08-17T00:51:08;10.80;;;7.95;;
58017;SDS011;43810;50.860;19.226;2023-08-17T00:53:35;10.80;;;8.23;;
58017;SDS011;43810;50.860;19.226;2023-08-17T00:56:01;10.43;;;8.35;;
58017;SDS011;43810;50.860;19.226;2023-08-17T00:58:28;13.20;;;8.20;;
58017;SDS011;43810;50.860;19.226;2023-08-17T01:00:54;11.52;;;7.95;;
58017;SDS011;43810;50.860;19.226;2023-08-17T01:03:20;11.52;;;7.30;;
58017;SDS011;43810;50.860;19.226;2023-08-17T01:05:48;10.57;;;7.63;;
58017;SDS011;43810;50.860;19.226;2023-08-17T01:08:14;11.63;;;7.53;;
58017;SDS011;43810;50.860;19.226;2023-08-17T01:16:21;12.32;;;7.95;;
58017;SDS011;43810;50.860;19.226;2023-08-17T01:18:55;11.30;;;8.80;;
58017;SDS011;43810;50.860;19.226;2023-08-17T01:21:22;10.93;;;8.60;;
58017;SDS011;43810;50.860;19.226;2023-08-17T01:23:50;10.60;;;7.82;;
58017;SDS011;43810;50.860;19.226;2023-08-17T01:26:16;14.38;;;8.30;;
58017;SDS011;43810;50.860;19.226;2023-08-17T01:28:43;16.67;;;9.57;;
58017;SDS011;43810;50.860;19.226;2023-08-17T01:31:33;12.90;;;8.68;;
58017;SDS011;43810;50.860;19.226;2023-08-17T01:34:08;13.95;;;9.18;;
58017;SDS011;43810;50.860;19.226;2023-08-17T01:36:50;12.45;;;9.07;;
58017;SDS011;43810;50.860;19.226;2023-08-17T01:39:20;11.73;;;9.30;;
58017;SDS011;43810;50.860;19.226;2023-08-17T01:41:50;17.10;;;9.60;;
58017;SDS011;43810;50.860;19.226;2023-08-17T01:44:17;12.57;;;9.63;;
58017;SDS011;43810;50.860;19.226;2023-08-17T01:46:43;12.80;;;10.00;;
58017;SDS011;43810;50.860;19.226;2023-08-17T01:49:09;14.50;;;9.68;;
58017;SDS011;43810;50.860;19.226;2023-08-17T01:51:35;11.57;;;8.95;;
58017;SDS011;43810;50.860;19.226;2023-08-17T01:54:01;12.45;;;10.02;;
58017;SDS011;43810;50.860;19.226;2023-08-17T01:56:27;13.13;;;9.40;;
58017;SDS011;43810;50.860;19.226;2023-08-17T01:58:52;17.10;;;9.20;;
58017;SDS011;43810;50.860;19.226;2023-08-17T02:01:18;12.73;;;9.27;;
58017;SDS011;43810;50.860;19.226;2023-08-17T02:03:44;13.82;;;9.82;;
58017;SDS011;43810;50.860;19.226;2023-08-17T02:06:10;17.42;;;10.38;;
58017;SDS011;43810;50.860;19.226;2023-08-17T02:08:37;17.85;;;10.35;;
58017;SDS011;43810;50.860;19.226;2023-08-17T02:11:04;15.23;;;10.88;;
58017;SDS011;43810;50.860;19.226;2023-08-17T02:13:30;16.70;;;11.05;;
58017;SDS011;43810;50.860;19.226;2023-08-17T02:15:56;17.40;;;11.95;;
58017;SDS011;43810;50.860;19.226;2023-08-17T02:18:22;14.93;;;11.15;;
58017;SDS011;43810;50.860;19.226;2023-08-17T02:20:48;18.77;;;11.63;;
58017;SDS011;43810;50.860;19.226;2023-08-17T02:23:14;20.00;;;12.10;;
58017;SDS011;43810;50.860;19.226;2023-08-17T02:25:41;22.25;;;11.57;;
58017;SDS011;43810;50.860;19.226;2023-08-17T02:28:07;23.45;;;11.55;;
58017;SDS011;43810;50.860;19.226;2023-08-17T02:30:32;17.60;;;10.93;;
58017;SDS011;43810;50.860;19.226;2023-08-17T02:32:58;16.63;;;10.15;;
58017;SDS011;43810;50.860;19.226;2023-08-17T02:35:24;14.20;;;10.30;;
58017;SDS011;43810;50.860;19.226;2023-08-17T02:37:51;13.82;;;10.20;;
58017;SDS011;43810;50.860;19.226;2023-08-17T02:40:17;16.42;;;10.65;;
58017;SDS011;43810;50.860;19.226;2023-08-17T02:42:43;11.80;;;9.18;;
58017;SDS011;43810;50.860;19.226;2023-08-17T02:45:09;17.98;;;10.20;;
58017;SDS011;43810;50.860;19.226;2023-08-17T02:47:35;16.73;;;9.93;;
58017;SDS011;43810;50.860;19.226;2023-08-17T02:50:03;15.05;;;9.98;;
58017;SDS011;43810;50.860;19.226;2023-08-17T02:52:31;14.27;;;10.10;;
58017;SDS011;43810;50.860;19.226;2023-08-17T02:54:56;14.10;;;10.05;;
58017;SDS011;43810;50.860;19.226;2023-08-17T02:57:22;14.27;;;10.48;;
58017;SDS011;43810;50.860;19.226;2023-08-17T02:59:48;16.50;;;10.27;;
58017;SDS011;43810;50.860;19.226;2023-08-17T03:02:14;13.88;;;10.23;;
58017;SDS011;43810;50.860;19.226;2023-08-17T03:04:39;12.20;;;10.05;;
58017;SDS011;43810;50.860;19.226;2023-08-17T03:07:07;13.80;;;9.57;;
58017;SDS011;43810;50.860;19.226;2023-08-17T03:09:33;15.68;;;11.05;;
58017;SDS011;43810;50.860;19.226;2023-08-17T03:11:59;13.13;;;10.48;;
58017;SDS011;43810;50.860;19.226;2023-08-17T03:14:24;15.88;;;10.20;;
58017;SDS011;43810;50.860;19.226;2023-08-17T03:16:50;14.63;;;10.98;;
58017;SDS011;43810;50.860;19.226;2023-08-17T03:19:16;12.60;;;9.95;;
58017;SDS011;43810;50.860;19.226;2023-08-17T03:21:43;17.60;;;12.05;;
58017;SDS011;43810;50.860;19.226;2023-08-17T03:24:09;15.95;;;11.30;;
58017;SDS011;43810;50.860;19.226;2023-08-17T03:26:35;15.43;;;12.13;;
58017;SDS011;43810;50.860;19.226;2023-08-17T03:29:00;15.45;;;11.77;;
58017;SDS011;43810;50.860;19.226;2023-08-17T03:31:26;16.70;;;12.38;;
58017;SDS011;43810;50.860;19.226;2023-08-17T03:33:52;15.88;;;12.43;;
58017;SDS011;43810;50.860;19.226;2023-08-17T03:36:18;18.83;;;12.27;;
58017;SDS011;43810;50.860;19.226;2023-08-17T03:38:44;18.40;;;12.88;;
58017;SDS011;43810;50.860;19.226;2023-08-17T03:41:10;19.65;;;13.40;;
58017;SDS011;43810;50.860;19.226;2023-08-17T03:43:35;17.05;;;12.52;;
58017;SDS011;43810;50.860;19.226;2023-08-17T03:46:02;19.33;;;13.38;;
58017;SDS011;43810;50.860;19.226;2023-08-17T03:48:29;20.48;;;13.70;;
58017;SDS011;43810;50.860;19.226;2023-08-17T03:50:55;22.20;;;14.57;;
58017;SDS011;43810;50.860;19.226;2023-08-17T03:53:20;19.38;;;13.70;;
58017;SDS011;43810;50.860;19.226;2023-08-17T03:55:47;23.33;;;13.80;;
58017;SDS011;43810;50.860;19.226;2023-08-17T03:58:14;18.02;;;13.43;;
58017;SDS011;43810;50.860;19.226;2023-08-17T04:00:40;16.77;;;13.10;;
58017;SDS011;43810;50.860;19.226;2023-08-17T04:03:07;17.58;;;13.30;;
58017;SDS011;43810;50.860;19.226;2023-08-17T04:05:33;18.58;;;13.32;;
58017;SDS011;43810;50.860;19.226;2023-08-17T04:08:00;22.50;;;13.95;;
58017;SDS011;43810;50.860;19.226;2023-08-17T04:10:28;22.33;;;14.82;;
58017;SDS011;43810;50.860;19.226;2023-08-17T04:12:55;22.25;;;14.63;;
58017;SDS011;43810;50.860;19.226;2023-08-17T04:15:24;18.35;;;14.15;;
58017;SDS011;43810;50.860;19.226;2023-08-17T04:17:50;21.95;;;14.25;;
58017;SDS011;43810;50.860;19.226;2023-08-17T04:20:16;22.00;;;14.73;;
58017;SDS011;43810;50.860;19.226;2023-08-17T04:22:43;19.10;;;14.85;;
58017;SDS011;43810;50.860;19.226;2023-08-17T04:25:10;22.50;;;14.35;;
58017;SDS011;43810;50.860;19.226;2023-08-17T04:27:38;20.98;;;14.95;;
58017;SDS011;43810;50.860;19.226;2023-08-17T04:30:04;23.45;;;14.65;;
58017;SDS011;43810;50.860;19.226;2023-08-17T04:32:30;21.50;;;14.70;;
58017;SDS011;43810;50.860;19.226;2023-08-17T04:34:56;21.92;;;14.52;;
58017;SDS011;43810;50.860;19.226;2023-08-17T04:37:22;19.90;;;13.77;;
58017;SDS011;43810;50.860;19.226;2023-08-17T04:39:48;19.80;;;13.68;;
58017;SDS011;43810;50.860;19.226;2023-08-17T04:42:14;17.80;;;13.15;;
58017;SDS011;43810;50.860;19.226;2023-08-17T04:44:40;19.08;;;12.65;;
58017;SDS011;43810;50.860;19.226;2023-08-17T04:47:06;18.52;;;14.15;;
58017;SDS011;43810;50.860;19.226;2023-08-17T04:49:32;22.05;;;13.60;;
58017;SDS011;43810;50.860;19.226;2023-08-17T04:51:57;20.13;;;13.32;;
58017;SDS011;43810;50.860;19.226;2023-08-17T04:54:23;20.52;;;13.98;;
58017;SDS011;43810;50.860;19.226;2023-08-17T04:56:49;19.27;;;13.60;;
58017;SDS011;43810;50.860;19.226;2023-08-17T04:59:15;17.77;;;12.65;;
58017;SDS011;43810;50.860;19.226;2023-08-17T05:01:40;18.25;;;12.75;;
58017;SDS011;43810;50.860;19.226;2023-08-17T05:04:06;18.05;;;12.60;;
58017;SDS011;43810;50.860;19.226;2023-08-17T05:06:32;19.65;;;13.43;;
58017;SDS011;43810;50.860;19.226;2023-08-17T05:08:58;19.60;;;12.75;;
58017;SDS011;43810;50.860;19.226;2023-08-17T05:11:24;19.17;;;12.90;;
58017;SDS011;43810;50.860;19.226;2023-08-17T05:13:50;19.08;;;13.43;;
58017;SDS011;43810;50.860;19.226;2023-08-17T05:16:15;23.35;;;14.18;;
58017;SDS011;43810;50.860;19.226;2023-08-17T05:18:41;17.83;;;12.98;;
58017;SDS011;43810;50.860;19.226;2023-08-17T05:21:07;17.83;;;12.73;;
58017;SDS011;43810;50.860;19.226;2023-08-17T05:23:33;20.48;;;13.43;;
58017;SDS011;43810;50.860;19.226;2023-08-17T05:25:59;21.70;;;14.07;;
58017;SDS011;43810;50.860;19.226;2023-08-17T05:28:26;20.98;;;12.90;;
58017;SDS011;43810;50.860;19.226;2023-08-17T05:30:51;20.90;;;13.73;;
58017;SDS011;43810;50.860;19.226;2023-08-17T05:33:19;17.27;;;11.63;;
58017;SDS011;43810;50.860;19.226;2023-08-17T05:35:44;17.38;;;11.77;;
58017;SDS011;43810;50.860;19.226;2023-08-17T05:38:10;18.85;;;12.65;;
58017;SDS011;43810;50.860;19.226;2023-08-17T05:40:36;18.23;;;13.02;;
58017;SDS011;43810;50.860;19.226;2023-08-17T05:43:02;18.58;;;12.95;;
58017;SDS011;43810;50.860;19.226;2023-08-17T05:45:28;21.40;;;14.15;;
58017;SDS011;43810;50.860;19.226;2023-08-17T05:47:54;18.75;;;13.57;;
58017;SDS011;43810;50.860;19.226;2023-08-17T05:50:19;18.67;;;13.65;;
58017;SDS011;43810;50.860;19.226;2023-08-17T05:52:45;20.95;;;14.15;;
58017;SDS011;43810;50.860;19.226;2023-08-17T05:55:11;24.10;;;15.40;;
58017;SDS011;43810;50.860;19.226;2023-08-17T05:57:37;22.33;;;13.82;;
58017;SDS011;43810;50.860;19.226;2023-08-17T06:00:03;25.02;;;15.15;;
58017;SDS011;43810;50.860;19.226;2023-08-17T06:02:29;19.08;;;13.68;;
58017;SDS011;43810;50.860;19.226;2023-08-17T06:04:55;18.67;;;13.48;;
58017;SDS011;43810;50.860;19.226;2023-08-17T06:07:21;17.67;;;11.48;;
58017;SDS011;43810;50.860;19.226;2023-08-17T06:09:46;21.08;;;13.48;;
58017;SDS011;43810;50.860;19.226;2023-08-17T06:12:12;18.10;;;13.52;;
58017;SDS011;43810;50.860;19.226;2023-08-17T06:14:57;18.52;;;13.60;;
58017;SDS011;43810;50.860;19.226;2023-08-17T06:17:22;17.85;;;13.02;;
58017;SDS011;43810;50.860;19.226;2023-08-17T06:19:48;18.02;;;13.60;;
58017;SDS011;43810;50.860;19.226;2023-08-17T06:22:14;19.80;;;14.02;;
58017;SDS011;43810;50.860;19.226;2023-08-17T06:24:39;23.95;;;13.63;;
58017;SDS011;43810;50.860;19.226;2023-08-17T06:27:05;23.20;;;13.85;;
58017;SDS011;43810;50.860;19.226;2023-08-17T06:29:31;21.35;;;15.02;;
58017;SDS011;43810;50.860;19.226;2023-08-17T06:31:57;18.60;;;13.65;;
58017;SDS011;43810;50.860;19.226;2023-08-17T06:34:22;17.90;;;13.50;;
58017;SDS011;43810;50.860;19.226;2023-08-17T06:36:58;20.08;;;13.70;;
58017;SDS011;43810;50.860;19.226;2023-08-17T06:39:26;17.88;;;13.18;;
58017;SDS011;43810;50.860;19.226;2023-08-17T06:41:53;18.85;;;13.73;;
58017;SDS011;43810;50.860;19.226;2023-08-17T06:44:19;19.00;;;13.93;;
58017;SDS011;43810;50.860;19.226;2023-08-17T06:46:45;17.60;;;13.30;;
58017;SDS011;43810;50.860;19.226;2023-08-17T06:49:11;18.83;;;13.38;;
58017;SDS011;43810;50.860;19.226;2023-08-17T06:51:38;19.08;;;12.88;;
58017;SDS011;43810;50.860;19.226;2023-08-17T06:54:04;17.17;;;12.13;;
58017;SDS011;43810;50.860;19.226;2023-08-17T06:56:31;21.23;;;13.00;;
58017;SDS011;43810;50.860;19.226;2023-08-17T06:58:57;19.67;;;12.82;;
58017;SDS011;43810;50.860;19.226;2023-08-17T07:01:23;16.58;;;12.63;;
58017;SDS011;43810;50.860;19.226;2023-08-17T07:03:48;20.25;;;12.90;;
58017;SDS011;43810;50.860;19.226;2023-08-17T07:06:14;22.05;;;12.90;;
58017;SDS011;43810;50.860;19.226;2023-08-17T07:08:40;17.15;;;12.52;;
58017;SDS011;43810;50.860;19.226;2023-08-17T07:11:06;15.68;;;12.13;;
58017;SDS011;43810;50.860;19.226;2023-08-17T07:13:33;13.82;;;11.48;;
58017;SDS011;43810;50.860;19.226;2023-08-17T07:15:59;17.25;;;12.77;;
58017;SDS011;43810;50.860;19.226;2023-08-17T07:18:25;15.68;;;12.02;;
58017;SDS011;43810;50.860;19.226;2023-08-17T07:20:51;15.52;;;10.93;;
58017;SDS011;43810;50.860;19.226;2023-08-17T07:23:16;18.27;;;11.55;;
58017;SDS011;43810;50.860;19.226;2023-08-17T07:25:42;23.10;;;12.15;;
58017;SDS011;43810;50.860;19.226;2023-08-17T07:28:09;19.77;;;10.70;;
58017;SDS011;43810;50.860;19.226;2023-08-17T07:30:35;15.05;;;10.95;;
58017;SDS011;43810;50.860;19.226;2023-08-17T07:33:01;18.20;;;11.25;;
58017;SDS011;43810;50.860;19.226;2023-08-17T07:35:27;19.55;;;11.77;;
58017;SDS011;43810;50.860;19.226;2023-08-17T07:37:52;20.60;;;10.82;;
58017;SDS011;43810;50.860;19.226;2023-08-17T07:40:18;14.68;;;11.65;;
58017;SDS011;43810;50.860;19.226;2023-08-17T07:42:45;14.70;;;11.02;;
58017;SDS011;43810;50.860;19.226;2023-08-17T07:45:11;15.45;;;11.27;;
58017;SDS011;43810;50.860;19.226;2023-08-17T07:47:37;17.20;;;11.98;;
58017;SDS011;43810;50.860;19.226;2023-08-17T07:50:03;22.38;;;12.68;;
58017;SDS011;43810;50.860;19.226;2023-08-17T07:52:30;20.80;;;12.77;;
58017;SDS011;43810;50.860;19.226;2023-08-17T07:54:56;23.13;;;16.20;;
58017;SDS011;43810;50.860;19.226;2023-08-17T07:57:21;18.90;;;13.00;;
58017;SDS011;43810;50.860;19.226;2023-08-17T07:59:47;18.23;;;11.48;;
58017;SDS011;43810;50.860;19.226;2023-08-17T08:02:13;17.20;;;13.07;;
58017;SDS011;43810;50.860;19.226;2023-08-17T08:04:39;17.33;;;12.75;;
58017;SDS011;43810;50.860;19.226;2023-08-17T08:07:05;14.35;;;12.07;;
58017;SDS011;43810;50.860;19.226;2023-08-17T08:09:31;18.42;;;12.65;;
58017;SDS011;43810;50.860;19.226;2023-08-17T08:11:57;14.20;;;11.98;;
58017;SDS011;43810;50.860;19.226;2023-08-17T08:14:23;16.88;;;12.75;;
58017;SDS011;43810;50.860;19.226;2023-08-17T08:16:48;14.65;;;11.85;;
58017;SDS011;43810;50.860;19.226;2023-08-17T08:19:14;20.92;;;12.57;;
58017;SDS011;43810;50.860;19.226;2023-08-17T08:21:40;13.60;;;12.00;;
58017;SDS011;43810;50.860;19.226;2023-08-17T08:24:06;17.05;;;13.15;;
58017;SDS011;43810;50.860;19.226;2023-08-17T08:26:31;17.98;;;11.80;;
58017;SDS011;43810;50.860;19.226;2023-08-17T08:28:57;16.73;;;13.25;;
58017;SDS011;43810;50.860;19.226;2023-08-17T08:31:23;17.83;;;12.38;;
58017;SDS011;43810;50.860;19.226;2023-08-17T08:33:49;17.20;;;13.45;;
58017;SDS011;43810;50.860;19.226;2023-08-17T08:36:14;15.77;;;12.00;;
58017;SDS011;43810;50.860;19.226;2023-08-17T08:38:40;17.08;;;13.32;;
58017;SDS011;43810;50.860;19.226;2023-08-17T08:41:06;16.75;;;13.25;;
58017;SDS011;43810;50.860;19.226;2023-08-17T08:43:34;16.90;;;12.52;;
58017;SDS011;43810;50.860;19.226;2023-08-17T08:46:00;19.45;;;13.77;;
58017;SDS011;43810;50.860;19.226;2023-08-17T08:48:26;15.15;;;13.10;;
58017;SDS011;43810;50.860;19.226;2023-08-17T08:50:54;14.70;;;12.48;;
58017;SDS011;43810;50.860;19.226;2023-08-17T08:53:23;17.50;;;12.55;;
58017;SDS011;43810;50.860;19.226;2023-08-17T08:55:55;19.60;;;13.43;;
58017;SDS011;43810;50.860;19.226;2023-08-17T08:58:25;16.00;;;11.90;;
58017;SDS011;43810;50.860;19.226;2023-08-17T09:00:51;17.30;;;12.48;;
58017;SDS011;43810;50.860;19.226;2023-08-17T09:03:18;16.77;;;12.50;;
58017;SDS011;43810;50.860;19.226;2023-08-17T09:05:49;17.13;;;12.45;;
58017;SDS011;43810;50.860;19.226;2023-08-17T09:08:21;17.00;;;13.38;;
58017;SDS011;43810;50.860;19.226;2023-08-17T09:10:48;18.83;;;12.82;;
58017;SDS011;43810;50.860;19.226;2023-08-17T09:13:15;18.15;;;13.25;;
58017;SDS011;43810;50.860;19.226;2023-08-17T09:15:41;19.48;;;12.63;;
58017;SDS011;43810;50.860;19.226;2023-08-17T09:18:07;21.92;;;12.40;;
58017;SDS011;43810;50.860;19.226;2023-08-17T09:20:43;16.90;;;13.05;;
58017;SDS011;43810;50.860;19.226;2023-08-17T09:23:14;16.55;;;12.60;;
58017;SDS011;43810;50.860;19.226;2023-08-17T09:25:47;18.70;;;13.55;;
58017;SDS011;43810;50.860;19.226;2023-08-17T09:28:16;18.15;;;12.95;;
58017;SDS011;43810;50.860;19.226;2023-08-17T09:33:31;18.38;;;13.23;;
58017;SDS011;43810;50.860;19.226;2023-08-17T09:35:58;14.10;;;12.60;;
58017;SDS011;43810;50.860;19.226;2023-08-17T09:38:26;17.30;;;13.48;;
58017;SDS011;43810;50.860;19.226;2023-08-17T09:40:52;22.25;;;12.68;;
58017;SDS011;43810;50.860;19.226;2023-08-17T09:43:19;20.90;;;13.98;;
58017;SDS011;43810;50.860;19.226;2023-08-17T09:45:49;16.20;;;11.88;;
58017;SDS011;43810;50.860;19.226;2023-08-17T09:48:16;18.75;;;12.40;;
58017;SDS011;43810;50.860;19.226;2023-08-17T09:50:43;17.35;;;12.80;;
58017;SDS011;43810;50.860;19.226;2023-08-17T09:53:14;15.38;;;13.30;;
58017;SDS011;43810;50.860;19.226;2023-08-17T09:55:41;20.25;;;13.13;;
58017;SDS011;43810;50.860;19.226;2023-08-17T09:58:08;16.13;;;12.57;;
58017;SDS011;43810;50.860;19.226;2023-08-17T10:00:37;20.02;;;14.20;;
58017;SDS011;43810;50.860;19.226;2023-08-17T10:03:04;20.95;;;13.45;;
58017;SDS011;43810;50.860;19.226;2023-08-17T10:05:31;17.50;;;13.38;;
58017;SDS011;43810;50.860;19.226;2023-08-17T10:08:03;18.52;;;13.02;;
58017;SDS011;43810;50.860;19.226;2023-08-17T10:10:32;21.52;;;13.35;;
58017;SDS011;43810;50.860;19.226;2023-08-17T10:15:37;20.60;;;12.60;;
58017;SDS011;43810;50.860;19.226;2023-08-17T10:18:09;18.00;;;13.00;;
58017;SDS011;43810;50.860;19.226;2023-08-17T10:20:36;20.23;;;13.13;;
58017;SDS011;43810;50.860;19.226;2023-08-17T10:23:10;18.05;;;13.52;;
58017;SDS011;43810;50.860;19.226;2023-08-17T10:25:42;18.70;;;14.15;;
58017;SDS011;43810;50.860;19.226;2023-08-17T10:28:10;19.00;;;13.88;;
58017;SDS011;43810;50.860;19.226;2023-08-17T10:30:36;21.63;;;13.43;;
58017;SDS011;43810;50.860;19.226;2023-08-17T10:33:03;18.45;;;12.95;;
58017;SDS011;43810;50.860;19.226;2023-08-17T10:35:31;16.75;;;12.90;;
58017;SDS011;43810;50.860;19.226;2023-08-17T10:37:59;15.90;;;12.25;;
58017;SDS011;43810;50.860;19.226;2023-08-17T10:40:36;21.85;;;12.52;;
58017;SDS011;43810;50.860;19.226;2023-08-17T10:43:03;15.15;;;12.63;;
58017;SDS011;43810;50.860;19.226;2023-08-17T10:45:32;21.88;;;12.05;;
58017;SDS011;43810;50.860;19.226;2023-08-17T10:50:34;19.33;;;12.43;;
58017;SDS011;43810;50.860;19.226;2023-08-17T10:53:19;16.63;;;11.43;;
58017;SDS011;43810;50.860;19.226;2023-08-17T10:55:46;16.88;;;10.82;;
58017;SDS011;43810;50.860;19.226;2023-08-17T10:58:16;14.00;;;11.40;;
58017;SDS011;43810;50.860;19.226;2023-08-17T11:00:42;15.43;;;10.50;;
58017;SDS011;43810;50.860;19.226;2023-08-17T11:03:10;13.70;;;10.43;;
58017;SDS011;43810;50.860;19.226;2023-08-17T11:05:43;13.55;;;10.40;;
58017;SDS011;43810;50.860;19.226;2023-08-17T11:08:22;14.20;;;9.70;;
58017;SDS011;43810;50.860;19.226;2023-08-17T11:13:36;11.05;;;8.10;;
58017;SDS011;43810;50.860;19.226;2023-08-17T11:16:04;9.00;;;5.88;;
58017;SDS011;43810;50.860;19.226;2023-08-17T11:18:31;8.45;;;6.85;;
58017;SDS011;43810;50.860;19.226;2023-08-17T11:20:57;10.63;;;7.07;;
58017;SDS011;43810;50.860;19.226;2023-08-17T11:23:24;7.97;;;6.43;;
58017;SDS011;43810;50.860;19.226;2023-08-17T11:25:52;8.10;;;7.13;;
58017;SDS011;43810;50.860;19.226;2023-08-17T11:28:18;10.23;;;6.15;;
58017;SDS011;43810;50.860;19.226;2023-08-17T11:30:43;11.65;;;7.05;;
58017;SDS011;43810;50.860;19.226;2023-08-17T11:33:10;11.80;;;6.75;;
58017;SDS011;43810;50.860;19.226;2023-08-17T11:35:36;9.00;;;6.28;;
58017;SDS011;43810;50.860;19.226;2023-08-17T11:38:02;9.90;;;5.63;;
58017;SDS011;43810;50.860;19.226;2023-08-17T11:40:29;7.03;;;6.18;;
58017;SDS011;43810;50.860;19.226;2023-08-17T11:42:55;12.35;;;6.10;;
58017;SDS011;43810;50.860;19.226;2023-08-17T11:45:21;8.15;;;6.90;;
58017;SDS011;43810;50.860;19.226;2023-08-17T11:47:47;8.85;;;6.15;;
58017;SDS011;43810;50.860;19.226;2023-08-17T11:50:14;8.82;;;6.30;;
58017;SDS011;43810;50.860;19.226;2023-08-17T11:52:40;10.35;;;6.32;;
58017;SDS011;43810;50.860;19.226;2023-08-17T11:55:07;9.50;;;6.50;;
58017;SDS011;43810;50.860;19.226;2023-08-17T11:57:35;5.70;;;5.07;;
58017;SDS011;43810;50.860;19.226;2023-08-17T12:00:02;9.57;;;5.88;;
58017;SDS011;43810;50.860;19.226;2023-08-17T12:02:31;8.40;;;5.28;;
58017;SDS011;43810;50.860;19.226;2023-08-17T12:05:02;5.85;;;5.20;;
58017;SDS011;43810;50.860;19.226;2023-08-17T12:07:32;5.20;;;4.70;;
58017;SDS011;43810;50.860;19.226;2023-08-17T12:09:58;7.57;;;5.35;;
58017;SDS011;43810;50.860;19.226;2023-08-17T12:12:24;7.40;;;5.95;;
58017;SDS011;43810;50.860;19.226;2023-08-17T12:14:49;8.02;;;5.55;;
58017;SDS011;43810;50.860;19.226;2023-08-17T12:17:16;7.43;;;5.20;;
58017;SDS011;43810;50.860;19.226;2023-08-17T12:19:43;5.95;;;4.93;;
58017;SDS011;43810;50.860;19.226;2023-08-17T12:22:10;6.57;;;4.72;;
58017;SDS011;43810;50.860;19.226;2023-08-17T12:24:38;6.90;;;4.63;;
58017;SDS011;43810;50.860;19.226;2023-08-17T12:27:05;4.47;;;3.90;;
58017;SDS011;43810;50.860;19.226;2023-08-17T12:29:31;4.88;;;4.18;;
58017;SDS011;43810;50.860;19.226;2023-08-17T12:31:58;5.97;;;4.57;;
58017;SDS011;43810;50.860;19.226;2023-08-17T12:34:24;9.57;;;4.68;;
58017;SDS011;43810;50.860;19.226;2023-08-17T12:36:50;5.90;;;4.72;;
58017;SDS011;43810;50.860;19.226;2023-08-17T12:39:16;7.63;;;4.97;;
58017;SDS011;43810;50.860;19.226;2023-08-17T12:41:42;9.40;;;4.65;;
58017;SDS011;43810;50.860;19.226;2023-08-17T12:44:10;8.45;;;5.00;;
58017;SDS011;43810;50.860;19.226;2023-08-17T12:46:39;5.97;;;4.40;;
58017;SDS011;43810;50.860;19.226;2023-08-17T12:49:06;5.50;;;4.40;;
58017;SDS011;43810;50.860;19.226;2023-08-17T12:51:33;6.55;;;4.50;;
58017;SDS011;43810;50.860;19.226;2023-08-17T12:53:58;5.25;;;4.75;;
58017;SDS011;43810;50.860;19.226;2023-08-17T12:56:24;5.63;;;4.68;;
58017;SDS011;43810;50.860;19.226;2023-08-17T12:58:50;6.00;;;4.95;;
58017;SDS011;43810;50.860;19.226;2023-08-17T13:01:16;5.50;;;5.00;;
58017;SDS011;43810;50.860;19.226;2023-08-17T13:03:43;6.10;;;5.00;;
58017;SDS011;43810;50.860;19.226;2023-08-17T13:06:09;6.55;;;5.82;;
58017;SDS011;43810;50.860;19.226;2023-08-17T13:08:35;5.75;;;4.43;;
58017;SDS011;43810;50.860;19.226;2023-08-17T13:11:01;5.90;;;4.40;;
58017;SDS011;43810;50.860;19.226;2023-08-17T13:13:27;8.30;;;5.00;;
58017;SDS011;43810;50.860;19.226;2023-08-17T13:15:52;8.10;;;4.60;;
58017;SDS011;43810;50.860;19.226;2023-08-17T13:18:18;7.85;;;4.70;;
58017;SDS011;43810;50.860;19.226;2023-08-17T13:20:44;11.18;;;5.32;;
58017;SDS011;43810;50.860;19.226;2023-08-17T13:23:10;5.55;;;4.22;;
58017;SDS011;43810;50.860;19.226;2023-08-17T13:25:36;6.00;;;4.30;;
58017;SDS011;43810;50.860;19.226;2023-08-17T13:28:02;6.18;;;4.72;;
58017;SDS011;43810;50.860;19.226;2023-08-17T13:30:28;7.40;;;4.35;;
58017;SDS011;43810;50.860;19.226;2023-08-17T13:32:54;4.88;;;4.13;;
58017;SDS011;43810;50.860;19.226;2023-08-17T13:35:21;6.15;;;4.60;;
58017;SDS011;43810;50.860;19.226;2023-08-17T13:37:50;8.63;;;5.10;;
58017;SDS011;43810;50.860;19.226;2023-08-17T13:40:18;8.30;;;4.82;;
58017;SDS011;43810;50.860;19.226;2023-08-17T13:42:43;5.82;;;4.65;;
58017;SDS011;43810;50.860;19.226;2023-08-17T13:45:09;6.05;;;4.50;;
58017;SDS011;43810;50.860;19.226;2023-08-17T13:47:35;5.80;;;4.70;;
58017;SDS011;43810;50.860;19.226;2023-08-17T13:50:01;7.90;;;4.97;;
58017;SDS011;43810;50.860;19.226;2023-08-17T13:52:28;7.15;;;5.30;;
58017;SDS011;43810;50.860;19.226;2023-08-17T13:54:54;7.13;;;5.35;;
58017;SDS011;43810;50.860;19.226;2023-08-17T13:57:20;7.25;;;4.68;;
58017;SDS011;43810;50.860;19.226;2023-08-17T13:59:46;7.00;;;4.88;;
58017;SDS011;43810;50.860;19.226;2023-08-17T14:02:12;8.68;;;5.15;;
58017;SDS011;43810;50.860;19.226;2023-08-17T14:04:38;8.20;;;5.82;;
58017;SDS011;43810;50.860;19.226;2023-08-17T14:07:03;14.85;;;11.65;;
58017;SDS011;43810;50.860;19.226;2023-08-17T14:09:29;8.25;;;5.05;;
58017;SDS011;43810;50.860;19.226;2023-08-17T14:11:55;6.88;;;5.13;;
58017;SDS011;43810;50.860;19.226;2023-08-17T14:14:21;9.98;;;5.53;;
58017;SDS011;43810;50.860;19.226;2023-08-17T14:16:47;5.97;;;5.00;;
58017;SDS011;43810;50.860;19.226;2023-08-17T14:19:13;8.07;;;4.75;;
58017;SDS011;43810;50.860;19.226;2023-08-17T14:21:38;9.48;;;5.20;;
58017;SDS011;43810;50.860;19.226;2023-08-17T14:24:04;8.80;;;5.10;;
58017;SDS011;43810;50.860;19.226;2023-08-17T14:26:32;11.70;;;6.40;;
58017;SDS011;43810;50.860;19.226;2023-08-17T14:28:58;8.80;;;5.40;;